createdAt,value
2018-08-19T00:00:25.912Z,19.79
2018-08-19T00:02:57.268Z,19.75
2018-08-19T00:05:25.453Z,19.69
2018-08-19T00:07:54.081Z,19.66
2018-08-19T00:10:37.964Z,19.66
2018-08-19T00:13:07.302Z,19.62
2018-08-19T00:15:35.558Z,19.58
2018-08-19T00:18:03.778Z,19.54
2018-08-19T00:20:32.022Z,19.51
2018-08-19T00:23:00.226Z,19.40
2018-08-19T00:25:36.087Z,19.35
2018-08-19T00:28:07.694Z,19.33
2018-08-19T00:30:35.976Z,19.26
2018-08-19T00:33:04.820Z,19.27
2018-08-19T00:35:33.197Z,19.32
2018-08-19T00:38:01.581Z,19.29
2018-08-19T00:40:30.465Z,19.27
2018-08-19T00:42:59.039Z,19.33
2018-08-19T00:45:27.428Z,19.32
2018-08-19T00:47:55.829Z,19.23
2018-08-19T00:50:25.036Z,19.28
2018-08-19T00:52:53.899Z,19.19
2018-08-19T00:55:22.285Z,19.19
2018-08-19T00:57:55.823Z,19.17
2018-08-19T01:00:24.262Z,19.09
2018-08-19T01:02:52.460Z,19.08
2018-08-19T01:05:20.688Z,19.11
2018-08-19T01:07:48.927Z,19.19
2018-08-19T01:10:17.114Z,19.10
2018-08-19T01:12:45.706Z,19.06
2018-08-19T01:15:16.294Z,19.03
2018-08-19T01:17:46.012Z,18.89
2018-08-19T01:20:22.941Z,18.90
2018-08-19T01:22:51.182Z,18.80
2018-08-19T01:25:19.350Z,18.89
2018-08-19T01:27:47.610Z,18.70
2018-08-19T01:30:17.700Z,18.64
2018-08-19T01:32:45.964Z,18.78
2018-08-19T01:35:14.144Z,18.70
2018-08-19T01:37:42.645Z,18.77
2018-08-19T01:40:13.457Z,18.72
2018-08-19T01:42:42.001Z,18.57
2018-08-19T01:45:10.827Z,18.52
2018-08-19T01:47:39.309Z,18.64
2018-08-19T01:50:10.737Z,18.57
2018-08-19T01:52:39.614Z,18.67
2018-08-19T01:55:08.347Z,18.46
2018-08-19T01:57:41.901Z,18.34
2018-08-19T02:00:10.829Z,18.34
2018-08-19T02:02:52.424Z,18.33
2018-08-19T02:05:20.896Z,18.33
2018-08-19T02:07:51.253Z,18.31
2018-08-19T02:10:21.662Z,18.41
2018-08-19T02:12:51.830Z,18.37
2018-08-19T02:15:21.037Z,18.33
2018-08-19T02:17:55.562Z,18.39
2018-08-19T02:20:25.480Z,18.21
2018-08-19T02:23:00.746Z,18.33
2018-08-19T02:25:38.500Z,18.22
2018-08-19T02:28:08.772Z,18.20
2018-08-19T02:31:01.748Z,18.20
2018-08-19T02:33:34.294Z,18.10
2018-08-19T02:36:06.434Z,18.05
2018-08-19T02:38:35.153Z,17.96
2018-08-19T02:41:03.369Z,17.99
2018-08-19T02:43:31.913Z,18.02
2018-08-19T02:46:00.174Z,18.05
2018-08-19T02:48:48.013Z,18.04
2018-08-19T02:51:17.424Z,17.99
2018-08-19T02:53:46.821Z,17.96
2018-08-19T02:56:15.909Z,17.97
2018-08-19T02:58:45.219Z,17.85
2018-08-19T03:01:14.445Z,17.81
2018-08-19T03:03:42.647Z,17.81
2018-08-19T03:06:11.071Z,17.80
2018-08-19T03:08:44.656Z,17.76
2018-08-19T03:11:13.900Z,17.88
2018-08-19T03:13:42.074Z,17.81
2018-08-19T03:16:10.279Z,17.71
2018-08-19T03:18:38.469Z,17.63
2018-08-19T03:21:06.660Z,17.61
2018-08-19T03:23:34.909Z,17.64
2018-08-19T03:26:03.130Z,17.67
2018-08-19T03:28:31.346Z,17.63
2018-08-19T03:31:00.630Z,17.58
2018-08-19T03:33:29.081Z,17.52
2018-08-19T03:35:57.309Z,17.49
2018-08-19T03:38:25.949Z,17.47
2018-08-19T03:40:55.447Z,17.54
2018-08-19T03:43:23.719Z,17.56
2018-08-19T03:45:51.920Z,17.60
2018-08-19T03:48:20.417Z,17.65
2018-08-19T03:50:48.705Z,17.70
2018-08-19T03:53:16.929Z,17.52
2018-08-19T03:55:45.105Z,17.59
2018-08-19T03:58:13.437Z,17.40
2018-08-19T04:00:45.199Z,17.53
2018-08-19T04:03:20.008Z,17.55
2018-08-19T04:05:52.774Z,17.54
2018-08-19T04:08:20.951Z,17.40
2018-08-19T04:10:49.606Z,17.48
2018-08-19T04:13:31.216Z,17.51
2018-08-19T04:16:00.530Z,17.38
2018-08-19T04:18:34.198Z,17.38
2018-08-19T04:21:04.015Z,17.42
2018-08-19T04:23:32.873Z,17.37
2018-08-19T04:26:01.302Z,17.39
2018-08-19T04:28:29.492Z,17.46
2018-08-19T04:30:58.037Z,17.42
2018-08-19T04:33:32.785Z,17.54
2018-08-19T04:36:01.653Z,17.62
2018-08-19T04:38:30.338Z,17.60
2018-08-19T04:41:00.101Z,17.62
2018-08-19T04:43:29.248Z,17.61
2018-08-19T04:45:57.553Z,17.73
2018-08-19T04:48:27.046Z,17.78
2018-08-19T04:50:56.341Z,17.89
2018-08-19T04:53:24.589Z,17.93
2018-08-19T04:55:53.588Z,17.90
2018-08-19T04:58:21.845Z,17.88
2018-08-19T05:00:50.317Z,18.00
2018-08-19T05:03:18.586Z,18.15
2018-08-19T05:05:46.954Z,18.23
2018-08-19T05:08:15.286Z,18.35
2018-08-19T05:10:44.452Z,18.47
2018-08-19T05:13:13.482Z,18.62
2018-08-19T05:15:42.480Z,18.73
2018-08-19T05:18:11.277Z,18.79
2018-08-19T05:20:39.660Z,18.77
2018-08-19T05:23:08.428Z,18.90
2018-08-19T05:25:44.002Z,19.01
2018-08-19T05:28:12.310Z,19.12
2018-08-19T05:30:40.551Z,19.18
2018-08-19T05:33:08.975Z,19.26
2018-08-19T05:35:37.238Z,19.31
2018-08-19T05:38:05.862Z,19.56
2018-08-19T05:40:34.110Z,19.66
2018-08-19T05:43:02.389Z,19.74
2018-08-19T05:45:30.658Z,19.56
2018-08-19T05:48:07.033Z,19.49
2018-08-19T05:50:35.490Z,19.81
2018-08-19T05:53:03.721Z,19.68
2018-08-19T05:55:31.970Z,19.93
2018-08-19T05:58:00.125Z,20.15
2018-08-19T06:00:28.662Z,20.36
2018-08-19T06:02:57.805Z,20.40
2018-08-19T06:05:26.350Z,20.49
2018-08-19T06:08:01.669Z,20.49
2018-08-19T06:10:30.054Z,20.30
2018-08-19T06:12:58.733Z,20.85
2018-08-19T06:15:27.421Z,20.84
2018-08-19T06:17:55.901Z,21.22
2018-08-19T06:20:24.152Z,21.27
2018-08-19T06:22:52.355Z,21.23
2018-08-19T06:25:20.585Z,21.61
2018-08-19T06:27:49.704Z,21.47
2018-08-19T06:30:19.048Z,21.61
2018-08-19T06:32:47.342Z,21.79
2018-08-19T06:35:15.778Z,21.66
2018-08-19T06:37:44.078Z,21.94
2018-08-19T06:40:15.163Z,22.42
2018-08-19T06:42:43.694Z,22.25
2018-08-19T06:45:12.582Z,22.36
2018-08-19T06:47:40.838Z,22.56
2018-08-19T06:50:17.442Z,22.44
2018-08-19T06:52:45.759Z,22.87
2018-08-19T06:55:14.163Z,22.28
2018-08-19T06:57:42.528Z,22.57
2018-08-19T07:00:16.242Z,22.91
2018-08-19T07:02:44.505Z,22.89
2018-08-19T07:05:12.737Z,22.94
2018-08-19T07:07:40.965Z,22.90
2018-08-19T07:10:09.165Z,23.09
2018-08-19T07:12:37.385Z,22.85
2018-08-19T07:15:06.308Z,23.12
2018-08-19T07:17:35.483Z,23.54
2018-08-19T07:20:04.384Z,23.11
2018-08-19T07:22:32.551Z,23.75
2018-08-19T07:25:00.754Z,24.06
2018-08-19T07:27:29.251Z,23.58
2018-08-19T07:29:57.721Z,22.93
2018-08-19T07:32:26.183Z,23.94
2018-08-19T07:34:54.399Z,24.54
2018-08-19T07:37:22.615Z,24.75
2018-08-19T07:39:53.044Z,24.70
2018-08-19T07:42:21.747Z,25.07
2018-08-19T07:44:50.143Z,25.51
2018-08-19T07:47:18.397Z,25.43
2018-08-19T07:49:46.699Z,24.85
2018-08-19T07:52:14.866Z,24.85
2018-08-19T07:54:43.112Z,24.95
2018-08-19T07:57:21.706Z,24.98
2018-08-19T07:59:49.929Z,25.59
2018-08-19T08:02:18.129Z,25.71
2018-08-19T08:04:46.662Z,25.45
2018-08-19T08:07:15.407Z,26.13
2018-08-19T08:09:43.993Z,26.35
2018-08-19T08:12:13.473Z,26.12
2018-08-19T08:14:53.242Z,26.17
2018-08-19T08:17:22.515Z,26.72
2018-08-19T08:20:08.313Z,26.00
2018-08-19T08:22:37.505Z,25.93
2018-08-19T08:25:07.797Z,25.99
2018-08-19T08:27:36.557Z,27.33
2018-08-19T08:30:10.031Z,27.33
2018-08-19T08:32:38.895Z,27.11
2018-08-19T08:35:08.170Z,27.78
2018-08-19T08:37:36.393Z,26.39
2018-08-19T08:40:10.510Z,26.96
2018-08-19T08:42:40.729Z,26.68
2018-08-19T08:45:10.010Z,26.41
2018-08-19T08:47:38.427Z,27.52
2018-08-19T08:50:07.678Z,28.04
2018-08-19T08:52:36.154Z,27.91
2018-08-19T08:55:06.154Z,26.94
2018-08-19T08:57:34.498Z,27.12
2018-08-19T09:00:02.708Z,27.48
2018-08-19T09:02:31.170Z,27.59
2018-08-19T09:04:59.424Z,27.48
2018-08-19T09:07:27.741Z,26.58
2018-08-19T09:09:55.920Z,27.11
2018-08-19T09:12:35.260Z,27.45
2018-08-19T09:15:03.528Z,27.85
2018-08-19T09:17:33.342Z,28.23
2018-08-19T09:20:01.586Z,29.32
2018-08-19T09:22:29.764Z,29.73
2018-08-19T09:24:57.978Z,28.71
2018-08-19T09:27:26.185Z,28.44
2018-08-19T09:29:54.374Z,28.46
2018-08-19T09:32:22.807Z,29.36
2018-08-19T09:34:51.518Z,29.60
2018-08-19T09:37:19.771Z,30.56
2018-08-19T09:39:48.025Z,29.68
2018-08-19T09:42:16.275Z,30.26
2018-08-19T09:44:44.501Z,30.17
2018-08-19T09:47:12.741Z,29.80
2018-08-19T09:49:41.313Z,30.84
2018-08-19T09:52:09.555Z,31.10
2018-08-19T09:54:38.632Z,31.03
2018-08-19T09:57:07.837Z,31.38
2018-08-19T09:59:37.183Z,30.50
2018-08-19T10:02:07.485Z,30.72
2018-08-19T10:04:35.723Z,30.82
2018-08-19T10:07:09.320Z,29.94
2018-08-19T10:09:37.562Z,30.59
2018-08-19T10:12:06.148Z,30.62
2018-08-19T10:14:34.375Z,30.20
2018-08-19T10:17:02.602Z,30.41
2018-08-19T10:19:30.806Z,31.29
2018-08-19T10:21:59.256Z,31.33
2018-08-19T10:24:28.595Z,30.84
2018-08-19T10:26:57.173Z,32.55
2018-08-19T10:29:25.687Z,33.22
2018-08-19T10:31:56.719Z,32.99
2018-08-19T10:34:27.134Z,32.35
2018-08-19T10:36:55.693Z,33.53
2018-08-19T10:39:23.877Z,32.36
2018-08-19T10:41:52.153Z,33.03
2018-08-19T10:44:20.370Z,32.30
2018-08-19T10:46:48.870Z,32.50
2018-08-19T10:49:17.088Z,32.34
2018-08-19T10:51:46.483Z,33.35
2018-08-19T10:54:15.581Z,33.28
2018-08-19T10:56:43.786Z,33.47
2018-08-19T10:59:15.140Z,34.05
2018-08-19T11:01:43.416Z,35.00
2018-08-19T11:04:11.602Z,35.31
2018-08-19T11:06:41.362Z,34.35
2018-08-19T11:09:09.508Z,36.93
2018-08-19T11:11:37.975Z,41.58
2018-08-19T11:14:08.784Z,39.46
2018-08-19T11:16:37.036Z,40.71
2018-08-19T11:19:05.876Z,40.28
2018-08-19T11:21:40.324Z,40.10
2018-08-19T11:24:17.188Z,39.79
2018-08-19T11:26:48.506Z,46.38
2018-08-19T11:29:16.734Z,40.87
2018-08-19T11:31:45.226Z,39.99
2018-08-19T11:34:13.448Z,44.97
2018-08-19T11:36:44.001Z,40.05
2018-08-19T11:39:14.363Z,45.33
2018-08-19T11:41:42.633Z,47.81
2018-08-19T11:44:14.130Z,48.58
2018-08-19T11:46:42.373Z,49.85
2018-08-19T11:49:11.687Z,46.63
2018-08-19T11:51:44.821Z,48.58
2018-08-19T11:54:14.335Z,48.81
2018-08-19T11:56:46.819Z,50.25
2018-08-19T11:59:15.035Z,50.26
2018-08-19T12:01:43.233Z,53.05
2018-08-19T12:04:12.057Z,53.11
2018-08-19T12:06:40.242Z,52.63
2018-08-19T12:09:09.818Z,50.67
2018-08-19T12:11:39.539Z,51.96
2018-08-19T12:14:09.749Z,50.88
2018-08-19T12:16:44.373Z,53.64
2018-08-19T12:19:18.184Z,51.91
2018-08-19T12:21:52.846Z,52.90
2018-08-19T12:24:27.914Z,53.45
2018-08-19T12:26:57.791Z,55.24
2018-08-19T12:29:27.540Z,56.58
2018-08-19T12:32:02.809Z,55.81
2018-08-19T12:34:31.546Z,53.05
2018-08-19T12:37:00.055Z,52.69
2018-08-19T12:39:28.232Z,48.78
2018-08-19T12:41:56.702Z,53.65
2018-08-19T12:44:24.862Z,55.94
2018-08-19T12:47:05.969Z,56.05
2018-08-19T12:49:38.978Z,52.17
2018-08-19T12:52:08.182Z,55.62
2018-08-19T12:54:36.350Z,45.53
2018-08-19T12:57:04.543Z,43.97
2018-08-19T12:59:33.006Z,54.26
2018-08-19T13:02:01.442Z,57.46
2018-08-19T13:04:29.637Z,57.77
2018-08-19T13:07:16.456Z,57.36
2018-08-19T13:09:49.688Z,55.43
2018-08-19T13:12:17.975Z,49.79
2018-08-19T13:14:46.199Z,49.76
2018-08-19T13:17:14.505Z,53.98
2018-08-19T13:19:47.773Z,57.37
2018-08-19T13:22:15.974Z,47.58
2018-08-19T13:24:44.172Z,46.59
2018-08-19T13:27:12.407Z,54.13
2018-08-19T13:29:40.823Z,57.63
2018-08-19T13:32:09.010Z,55.41
2018-08-19T13:34:37.194Z,55.09
2018-08-19T13:37:05.790Z,52.69
2018-08-19T13:39:34.134Z,51.51
2018-08-19T13:42:02.319Z,54.77
2018-08-19T13:44:30.510Z,52.72
2018-08-19T13:46:59.082Z,55.19
2018-08-19T13:49:28.730Z,54.92
2018-08-19T13:52:00.462Z,55.81
2018-08-19T13:54:28.709Z,47.69
2018-08-19T13:56:57.008Z,52.30
2018-08-19T13:59:25.181Z,54.24
2018-08-19T14:01:53.743Z,50.64
2018-08-19T14:04:21.929Z,53.01
2018-08-19T14:06:50.106Z,54.55
2018-08-19T14:09:18.286Z,50.35
2018-08-19T14:11:46.496Z,55.44
2018-08-19T14:14:14.681Z,50.85
2018-08-19T14:16:42.852Z,50.32
2018-08-19T14:19:11.044Z,53.22
2018-08-19T14:21:39.782Z,45.33
2018-08-19T14:24:07.962Z,51.10
2018-08-19T14:26:36.167Z,51.40
2018-08-19T14:29:04.314Z,51.78
2018-08-19T14:31:32.488Z,53.56
2018-08-19T14:34:00.678Z,52.30
2018-08-19T14:36:28.882Z,52.53
2018-08-19T14:38:57.066Z,50.13
2018-08-19T14:41:25.262Z,50.39
2018-08-19T14:44:00.920Z,51.32
2018-08-19T14:46:30.565Z,53.48
2018-08-19T14:49:01.273Z,52.53
2018-08-19T14:51:32.305Z,51.01
2018-08-19T14:54:14.311Z,52.74
2018-08-19T14:56:42.823Z,50.35
2018-08-19T14:59:11.893Z,44.82
2018-08-19T15:01:40.084Z,43.64
2018-08-19T15:04:10.826Z,41.63
2018-08-19T15:06:39.125Z,40.92
2018-08-19T15:09:07.336Z,40.37
2018-08-19T15:11:35.625Z,38.68
2018-08-19T15:14:12.519Z,36.42
2018-08-19T15:16:40.804Z,37.28
2018-08-19T15:19:09.731Z,37.22
2018-08-19T15:21:37.957Z,37.22
2018-08-19T15:24:06.478Z,37.08
2018-08-19T15:26:34.654Z,36.59
2018-08-19T15:29:02.895Z,36.93
2018-08-19T15:31:31.102Z,36.84
2018-08-19T15:33:59.635Z,37.60
2018-08-19T15:36:27.966Z,34.98
2018-08-19T15:38:56.147Z,34.50
2018-08-19T15:41:24.566Z,34.82
2018-08-19T15:43:52.783Z,35.33
2018-08-19T15:46:21.518Z,34.91
2018-08-19T15:48:52.690Z,34.99
2018-08-19T15:51:21.166Z,35.14
2018-08-19T15:53:49.345Z,35.41
2018-08-19T15:56:17.538Z,34.73
2018-08-19T15:58:45.812Z,35.42
2018-08-19T16:01:24.231Z,35.66
2018-08-19T16:03:54.407Z,35.42
2018-08-19T16:06:22.875Z,35.34
2018-08-19T16:08:51.399Z,35.09
2018-08-19T16:11:19.570Z,35.24
2018-08-19T16:13:47.753Z,35.93
2018-08-19T16:16:20.106Z,36.27
2018-08-19T16:18:48.333Z,36.96
2018-08-19T16:21:16.477Z,37.19
2018-08-19T16:23:44.687Z,35.76
2018-08-19T16:26:12.911Z,35.05
2018-08-19T16:28:41.131Z,34.49
2018-08-19T16:31:10.037Z,34.63
2018-08-19T16:33:38.717Z,33.37
2018-08-19T16:36:06.902Z,34.02
2018-08-19T16:38:35.259Z,33.40
2018-08-19T16:41:03.434Z,33.44
2018-08-19T16:43:31.716Z,33.32
2018-08-19T16:46:00.226Z,33.14
2018-08-19T16:48:28.478Z,33.49
2018-08-19T16:50:56.832Z,33.71
2018-08-19T16:53:25.096Z,32.95
2018-08-19T16:55:53.285Z,32.70
2018-08-19T16:58:21.494Z,32.71
2018-08-19T17:00:49.714Z,32.61
2018-08-19T17:03:30.254Z,32.94
2018-08-19T17:05:58.503Z,32.62
2018-08-19T17:08:26.695Z,32.61
2018-08-19T17:10:55.058Z,32.49
2018-08-19T17:13:23.265Z,32.17
2018-08-19T17:15:51.488Z,32.02
2018-08-19T17:18:19.668Z,32.03
2018-08-19T17:20:47.846Z,31.86
2018-08-19T17:23:18.735Z,31.82
2018-08-19T17:25:46.981Z,31.89
2018-08-19T17:28:19.839Z,31.50
2018-08-19T17:30:49.033Z,31.52
2018-08-19T17:33:17.250Z,31.30
2018-08-19T17:35:47.505Z,31.24
2018-08-19T17:38:17.035Z,31.12
2018-08-19T17:40:45.591Z,31.08
2018-08-19T17:43:13.771Z,31.13
2018-08-19T17:45:42.039Z,30.98
2018-08-19T17:48:10.563Z,30.79
2018-08-19T17:50:39.322Z,30.46
2018-08-19T17:53:08.164Z,30.38
2018-08-19T17:55:36.645Z,30.28
2018-08-19T17:58:04.869Z,30.24
2018-08-19T18:00:33.122Z,30.18
2018-08-19T18:03:01.436Z,29.78
2018-08-19T18:05:29.701Z,29.62
2018-08-19T18:07:57.873Z,29.48
2018-08-19T18:10:26.061Z,29.40
2018-08-19T18:12:54.265Z,29.28
2018-08-19T18:15:22.493Z,29.21
2018-08-19T18:17:58.248Z,29.03
2018-08-19T18:20:28.369Z,28.84
2018-08-19T18:22:57.354Z,28.75
2018-08-19T18:25:25.737Z,28.50
2018-08-19T18:27:54.381Z,28.44
2018-08-19T18:30:25.441Z,28.35
2018-08-19T18:32:53.821Z,28.40
2018-08-19T18:35:23.119Z,28.25
2018-08-19T18:37:51.565Z,28.12
2018-08-19T18:40:25.230Z,28.03
2018-08-19T18:42:53.617Z,28.01
2018-08-19T18:45:21.879Z,27.92
2018-08-19T18:47:55.481Z,27.77
2018-08-19T18:50:24.883Z,27.55
2018-08-19T18:52:53.787Z,27.44
2018-08-19T18:55:22.108Z,27.40
2018-08-19T18:57:54.428Z,27.29
2018-08-19T19:00:24.613Z,27.10
2018-08-19T19:02:55.214Z,27.06
2018-08-19T19:05:31.939Z,26.92
2018-08-19T19:08:05.436Z,26.87
2018-08-19T19:10:33.765Z,26.70
2018-08-19T19:13:02.521Z,26.67
2018-08-19T19:15:33.086Z,26.59
2018-08-19T19:18:01.549Z,26.33
2018-08-19T19:20:29.795Z,26.16
2018-08-19T19:23:03.535Z,26.00
2018-08-19T19:25:37.087Z,26.11
2018-08-19T19:28:06.305Z,26.09
2018-08-19T19:30:34.551Z,25.99
2018-08-19T19:33:17.282Z,25.84
2018-08-19T19:35:45.574Z,25.77
2018-08-19T19:38:14.545Z,25.68
2018-08-19T19:40:42.731Z,25.56
2018-08-19T19:43:10.982Z,25.50
2018-08-19T19:45:44.410Z,25.46
2018-08-19T19:48:12.646Z,25.51
2018-08-19T19:50:41.148Z,25.44
2018-08-19T19:53:09.316Z,25.49
2018-08-19T19:55:37.558Z,25.42
2018-08-19T19:58:05.771Z,25.38
2018-08-19T20:00:50.855Z,25.49
2018-08-19T20:03:19.446Z,25.24
2018-08-19T20:05:47.949Z,25.03
2018-08-19T20:08:16.530Z,24.88
2018-08-19T20:10:44.726Z,24.76
2018-08-19T20:13:12.894Z,24.73
2018-08-19T20:15:41.173Z,24.66
2018-08-19T20:18:09.314Z,24.62
2018-08-19T20:20:37.502Z,24.46
2018-08-19T20:23:10.674Z,24.50
2018-08-19T20:25:39.334Z,24.31
2018-08-19T20:28:10.439Z,24.20
2018-08-19T20:30:39.749Z,24.25
2018-08-19T20:33:17.245Z,24.21
2018-08-19T20:35:46.559Z,24.03
2018-08-19T20:38:14.811Z,24.10
2018-08-19T20:40:43.140Z,23.74
2018-08-19T20:43:15.669Z,23.79
2018-08-19T20:45:43.883Z,23.67
2018-08-19T20:48:12.405Z,23.57
2018-08-19T20:50:40.631Z,23.68
2018-08-19T20:53:08.818Z,23.47
2018-08-19T20:55:37.133Z,23.45
2018-08-19T20:58:05.929Z,23.19
2018-08-19T21:00:34.249Z,23.28
2018-08-19T21:03:02.459Z,23.38
2018-08-19T21:05:30.738Z,23.11
2018-08-19T21:08:19.456Z,23.23
2018-08-19T21:10:48.433Z,23.42
2018-08-19T21:13:17.930Z,23.33
2018-08-19T21:15:47.350Z,23.05
2018-08-19T21:18:15.553Z,23.06
2018-08-19T21:20:44.074Z,23.07
2018-08-19T21:23:12.271Z,22.98
2018-08-19T21:26:13.284Z,23.01
2018-08-19T21:28:47.010Z,22.96
2018-08-19T21:31:15.469Z,22.87
2018-08-19T21:33:43.629Z,22.93
2018-08-19T21:36:11.829Z,22.86
2018-08-19T21:38:40.065Z,22.84
2018-08-19T21:41:08.290Z,22.81
2018-08-19T21:43:36.509Z,22.78
2018-08-19T21:46:04.701Z,22.65
2018-08-19T21:48:33.003Z,22.58
2018-08-19T21:51:01.178Z,22.57
2018-08-19T21:53:29.387Z,22.56
2018-08-19T21:55:57.930Z,22.54
2018-08-19T21:58:26.140Z,22.61
2018-08-19T22:00:57.518Z,22.40
2018-08-19T22:03:31.021Z,22.39
2018-08-19T22:05:59.234Z,22.41
2018-08-19T22:08:27.430Z,22.59
2018-08-19T22:10:55.666Z,22.60
2018-08-19T22:13:23.864Z,22.58
2018-08-19T22:15:52.081Z,22.50
2018-08-19T22:18:21.564Z,22.42
2018-08-19T22:21:10.245Z,22.35
2018-08-19T22:23:42.489Z,22.26
2018-08-19T22:26:11.569Z,22.31
2018-08-19T22:28:40.153Z,22.33
2018-08-19T22:31:20.533Z,22.24
2018-08-19T22:33:54.418Z,22.21
2018-08-19T22:36:22.617Z,22.16
2018-08-19T22:38:51.597Z,22.10
2018-08-19T22:41:21.922Z,22.11
2018-08-19T22:43:50.198Z,22.07
2018-08-19T22:46:18.486Z,22.05
2018-08-19T22:48:46.697Z,21.99
2018-08-19T22:51:15.474Z,21.91
2018-08-19T22:53:43.967Z,21.88
2018-08-19T22:56:12.175Z,21.98
2018-08-19T22:58:40.662Z,21.99
2018-08-19T23:01:08.886Z,22.01
2018-08-19T23:03:37.374Z,21.94
2018-08-19T23:06:05.560Z,21.96
2018-08-19T23:08:34.478Z,21.98
2018-08-19T23:11:04.258Z,21.96
2018-08-19T23:13:44.030Z,21.78
2018-08-19T23:16:13.096Z,21.65
2018-08-19T23:18:42.117Z,21.57
2018-08-19T23:21:10.593Z,21.47
2018-08-19T23:23:38.818Z,21.53
2018-08-19T23:26:07.259Z,21.50
2018-08-19T23:28:35.485Z,21.44
2018-08-19T23:31:04.093Z,21.25
2018-08-19T23:33:32.449Z,21.36
2018-08-19T23:36:00.717Z,21.23
2018-08-19T23:38:28.909Z,21.16
2018-08-19T23:40:57.089Z,21.21
2018-08-19T23:43:25.341Z,21.20
2018-08-19T23:45:53.536Z,21.29
2018-08-19T23:48:21.705Z,21.34
2018-08-19T23:50:49.927Z,21.31
2018-08-19T23:53:18.177Z,21.31
2018-08-19T23:55:46.637Z,21.31
2018-08-19T23:58:14.895Z,21.31
